createdAt,value
2022-11-24T00:02:21.746Z,25.20
2022-11-24T00:04:52.590Z,25.20
2022-11-24T00:07:23.132Z,25.30
2022-11-24T00:09:53.818Z,25.30
2022-11-24T00:12:24.645Z,25.30
2022-11-24T00:14:55.467Z,25.30
2022-11-24T00:17:26.047Z,25.40
2022-11-24T00:19:57.470Z,25.40
2022-11-24T00:22:28.635Z,25.50
2022-11-24T00:24:59.430Z,25.40
2022-11-24T00:27:29.857Z,25.40
2022-11-24T00:30:01.165Z,25.40
2022-11-24T00:32:32.359Z,25.30
2022-11-24T00:35:03.489Z,25.30
2022-11-24T00:37:33.708Z,25.40
2022-11-24T00:40:04.446Z,25.40
2022-11-24T00:42:35.306Z,25.30
2022-11-24T00:45:13.565Z,25.40
2022-11-24T00:47:45.049Z,25.40
2022-11-24T00:50:15.603Z,25.40
2022-11-24T00:52:45.674Z,25.50
2022-11-24T00:55:16.287Z,25.50
2022-11-24T00:57:47.030Z,25.40
2022-11-24T01:00:18.214Z,25.50
2022-11-24T01:02:48.804Z,25.60
2022-11-24T01:05:19.926Z,25.60
2022-11-24T01:07:50.427Z,25.50
2022-11-24T01:10:21.216Z,25.60
2022-11-24T01:12:51.904Z,25.60
2022-11-24T01:15:22.068Z,25.70
2022-11-24T01:17:52.553Z,25.70
2022-11-24T01:20:23.393Z,25.60
2022-11-24T01:22:54.153Z,25.60
2022-11-24T01:25:25.084Z,25.70
2022-11-24T01:27:55.402Z,25.80
2022-11-24T01:30:25.821Z,25.80
2022-11-24T01:32:56.972Z,25.70
2022-11-24T01:35:27.593Z,25.70
2022-11-24T01:37:58.188Z,25.70
2022-11-24T01:40:29.108Z,25.80
2022-11-24T01:42:59.668Z,25.70
2022-11-24T01:45:43.480Z,25.70
2022-11-24T01:48:27.358Z,25.80
2022-11-24T01:51:10.367Z,25.70
2022-11-24T01:53:44.096Z,25.80
2022-11-24T01:56:16.085Z,25.70
2022-11-24T01:58:48.695Z,25.80
2022-11-24T02:01:19.298Z,25.80
2022-11-24T02:03:52.190Z,25.70
2022-11-24T02:06:28.515Z,25.80
2022-11-24T02:09:21.237Z,25.70
2022-11-24T02:11:52.152Z,25.80
2022-11-24T02:14:25.219Z,25.80
2022-11-24T02:16:55.389Z,25.80
2022-11-24T02:19:55.941Z,25.80
2022-11-24T02:22:58.671Z,25.60
2022-11-24T02:26:08.332Z,25.60
2022-11-24T02:28:39.053Z,25.40
2022-11-24T02:31:09.826Z,25.40
2022-11-24T02:33:40.462Z,25.30
2022-11-24T02:36:10.763Z,25.20
2022-11-24T02:38:40.899Z,25.30
2022-11-24T02:41:16.317Z,25.30
2022-11-24T02:43:54.152Z,25.30
2022-11-24T02:46:25.049Z,25.30
2022-11-24T02:48:55.703Z,25.30
2022-11-24T02:51:25.918Z,25.30
2022-11-24T02:53:56.554Z,25.30
2022-11-24T02:56:29.082Z,25.30
2022-11-24T02:58:59.824Z,25.30
2022-11-24T03:01:30.362Z,25.30
2022-11-24T03:04:01.355Z,25.30
2022-11-24T03:06:31.539Z,25.30
2022-11-24T03:09:01.768Z,25.30
2022-11-24T03:11:32.395Z,25.30
2022-11-24T03:14:02.679Z,25.30
2022-11-24T03:16:33.027Z,25.30
2022-11-24T03:19:03.815Z,25.30
2022-11-24T03:21:34.744Z,25.40
2022-11-24T03:24:05.703Z,25.40
2022-11-24T03:26:37.286Z,25.50
2022-11-24T03:29:07.818Z,25.50
2022-11-24T03:31:37.962Z,25.50
2022-11-24T03:34:08.264Z,25.60
2022-11-24T03:36:38.418Z,25.60
2022-11-24T03:39:09.000Z,25.60
2022-11-24T03:41:39.851Z,25.60
2022-11-24T03:44:11.024Z,25.70
2022-11-24T03:46:42.157Z,25.70
2022-11-24T03:49:12.451Z,25.80
2022-11-24T03:51:43.013Z,25.70
2022-11-24T03:54:13.406Z,25.70
2022-11-24T03:56:44.413Z,25.60
2022-11-24T03:59:14.483Z,25.80
2022-11-24T04:01:45.136Z,25.80
2022-11-24T04:04:15.907Z,25.80
2022-11-24T04:06:46.329Z,25.80
2022-11-24T04:09:16.703Z,25.80
2022-11-24T04:12:07.357Z,25.90
2022-11-24T04:14:38.141Z,25.80
2022-11-24T04:17:08.494Z,25.70
2022-11-24T04:19:39.374Z,25.70
2022-11-24T04:22:10.588Z,25.70
2022-11-24T04:24:40.909Z,25.70
2022-11-24T04:27:11.444Z,25.70
2022-11-24T04:29:42.846Z,25.40
2022-11-24T04:32:13.662Z,25.50
2022-11-24T04:34:44.103Z,25.80
2022-11-24T04:37:14.898Z,25.90
2022-11-24T04:39:46.511Z,25.90
2022-11-24T04:42:16.693Z,26.00
2022-11-24T04:44:47.082Z,26.20
2022-11-24T04:47:25.913Z,26.20
2022-11-24T04:49:56.460Z,26.10
2022-11-24T04:52:28.132Z,26.10
2022-11-24T04:54:57.921Z,26.10
2022-11-24T04:57:29.264Z,26.30
2022-11-24T05:00:00.304Z,26.20
2022-11-24T05:02:30.448Z,26.30
2022-11-24T05:05:00.863Z,26.30
2022-11-24T05:07:31.540Z,26.30
2022-11-24T05:10:22.136Z,26.30
2022-11-24T05:13:01.035Z,26.40
2022-11-24T05:15:31.445Z,26.40
2022-11-24T05:18:02.255Z,26.60
2022-11-24T05:20:33.282Z,26.80
2022-11-24T05:23:06.255Z,26.90
2022-11-24T05:25:37.559Z,27.00
2022-11-24T05:28:11.776Z,27.00
2022-11-24T05:30:43.100Z,27.00
2022-11-24T05:33:20.712Z,26.90
2022-11-24T05:35:51.687Z,26.90
2022-11-24T05:38:24.152Z,26.90
2022-11-24T05:40:55.013Z,27.20
2022-11-24T05:43:25.180Z,27.50
2022-11-24T05:45:55.257Z,27.50
2022-11-24T05:48:25.675Z,27.60
2022-11-24T05:51:03.120Z,27.70
2022-11-24T05:53:35.665Z,27.70
2022-11-24T05:56:06.951Z,27.60
2022-11-24T05:58:37.400Z,27.60
2022-11-24T06:01:10.912Z,27.60
2022-11-24T06:03:41.153Z,27.70
2022-11-24T06:06:11.555Z,27.70
2022-11-24T06:08:42.410Z,27.70
2022-11-24T06:11:22.275Z,27.90
2022-11-24T06:13:53.221Z,28.10
2022-11-24T06:16:23.714Z,28.10
2022-11-24T06:18:53.891Z,28.00
2022-11-24T06:21:24.351Z,27.90
2022-11-24T06:23:55.239Z,28.10
2022-11-24T06:26:26.320Z,28.20
2022-11-24T06:28:56.571Z,28.40
2022-11-24T06:31:27.061Z,28.60
2022-11-24T06:33:57.353Z,28.90
2022-11-24T06:36:27.414Z,29.00
2022-11-24T06:38:57.844Z,29.00
2022-11-24T06:41:28.571Z,28.90
2022-11-24T06:43:59.177Z,29.10
2022-11-24T06:46:29.615Z,29.30
2022-11-24T06:49:01.249Z,29.50
2022-11-24T06:51:31.668Z,29.70
2022-11-24T06:54:02.115Z,29.80
2022-11-24T06:56:32.177Z,29.80
2022-11-24T06:59:02.991Z,29.80
2022-11-24T07:01:34.178Z,29.80
2022-11-24T07:04:04.755Z,29.80
2022-11-24T07:06:35.047Z,29.80
2022-11-24T07:09:06.215Z,29.80
2022-11-24T07:11:37.041Z,29.80
2022-11-24T07:14:08.095Z,29.90
2022-11-24T07:16:38.664Z,29.90
2022-11-24T07:19:08.887Z,30.10
2022-11-24T07:21:40.147Z,30.10
2022-11-24T07:24:11.199Z,30.20
2022-11-24T07:26:41.828Z,30.30
2022-11-24T07:29:12.326Z,30.30
2022-11-24T07:31:43.998Z,30.40
2022-11-24T07:34:16.258Z,30.50
2022-11-24T07:36:46.954Z,30.30
2022-11-24T07:39:18.128Z,30.00
2022-11-24T07:41:48.264Z,30.00
2022-11-24T07:44:19.190Z,30.10
2022-11-24T07:46:51.602Z,30.00
2022-11-24T07:49:22.691Z,30.00
2022-11-24T07:51:53.888Z,30.00
2022-11-24T07:54:23.937Z,29.80
2022-11-24T07:56:53.957Z,29.70
2022-11-24T07:59:24.024Z,29.90
2022-11-24T08:01:54.445Z,30.00
2022-11-24T08:04:24.602Z,29.90
2022-11-24T08:06:55.482Z,30.00
2022-11-24T08:09:26.334Z,30.00
2022-11-24T08:11:57.107Z,30.00
2022-11-24T08:14:27.946Z,30.00
2022-11-24T08:16:59.722Z,29.90
2022-11-24T08:19:30.595Z,29.90
2022-11-24T08:22:01.477Z,29.80
2022-11-24T08:24:33.157Z,29.70
2022-11-24T08:27:04.646Z,29.60
2022-11-24T08:29:35.549Z,29.50
2022-11-24T08:32:06.193Z,29.50
2022-11-24T08:34:36.955Z,29.60
2022-11-24T08:37:08.431Z,29.60
2022-11-24T08:39:39.259Z,29.40
2022-11-24T08:42:09.950Z,29.50
2022-11-24T08:44:40.743Z,29.50
2022-11-24T08:47:11.564Z,29.50
2022-11-24T08:49:42.821Z,29.50
2022-11-24T08:52:12.981Z,29.40
2022-11-24T08:54:46.267Z,29.50
2022-11-24T08:57:21.586Z,29.50
2022-11-24T08:59:52.624Z,29.60
2022-11-24T09:02:22.794Z,29.50
2022-11-24T09:04:53.044Z,29.50
2022-11-24T09:07:23.302Z,29.40
2022-11-24T09:09:54.094Z,29.40
2022-11-24T09:12:25.640Z,29.40
2022-11-24T09:14:56.132Z,29.40
2022-11-24T09:17:26.899Z,29.40
2022-11-24T09:19:57.373Z,29.40
2022-11-24T09:22:27.700Z,29.50
2022-11-24T09:24:58.384Z,29.30
2022-11-24T09:27:29.943Z,29.20
2022-11-24T09:30:00.247Z,29.20
2022-11-24T09:32:32.415Z,29.20
2022-11-24T09:35:03.176Z,29.20
2022-11-24T09:37:35.328Z,29.20
2022-11-24T09:40:06.116Z,29.20
2022-11-24T09:43:03.318Z,29.20
2022-11-24T09:46:05.375Z,29.20
2022-11-24T09:48:43.983Z,29.10
2022-11-24T09:51:16.069Z,29.00
2022-11-24T09:54:07.835Z,28.90
2022-11-24T09:56:42.303Z,28.90
2022-11-24T09:59:24.982Z,29.00
2022-11-24T10:01:57.577Z,29.00
2022-11-24T10:04:46.101Z,29.00
2022-11-24T10:07:34.926Z,28.90
2022-11-24T10:10:25.444Z,28.90
2022-11-24T10:13:35.730Z,28.90
2022-11-24T10:16:33.738Z,28.80
2022-11-24T10:19:37.553Z,28.80
2022-11-24T10:22:47.279Z,28.80
2022-11-24T10:25:56.499Z,28.70
2022-11-24T10:28:52.324Z,28.70
2022-11-24T10:31:38.213Z,28.70
2022-11-24T10:34:29.750Z,28.60
2022-11-24T10:37:30.582Z,28.50
2022-11-24T10:40:49.121Z,28.60
2022-11-24T10:43:15.569Z,28.50
2022-11-24T10:45:46.017Z,28.50
2022-11-24T10:48:29.284Z,28.40
2022-11-24T10:51:30.881Z,28.30
2022-11-24T10:54:24.371Z,28.30
2022-11-24T10:56:56.690Z,28.30
2022-11-24T10:59:34.528Z,28.20
2022-11-24T11:02:25.610Z,28.10
2022-11-24T11:04:56.183Z,28.00
2022-11-24T11:07:30.207Z,28.00
2022-11-24T11:10:25.438Z,28.00
2022-11-24T11:12:56.238Z,27.90
2022-11-24T11:15:33.132Z,27.80
2022-11-24T11:18:03.944Z,27.80
2022-11-24T11:20:35.953Z,27.80
2022-11-24T11:23:24.664Z,27.70
2022-11-24T11:26:33.964Z,27.70
2022-11-24T11:35:17.524Z,27.60
2022-11-24T11:37:51.055Z,27.70
2022-11-24T11:40:28.959Z,27.60
2022-11-24T11:43:21.632Z,27.70
2022-11-24T11:46:07.521Z,27.60
2022-11-24T11:48:43.660Z,27.60
2022-11-24T11:51:46.293Z,27.60
2022-11-24T11:54:56.077Z,27.50
2022-11-24T11:58:05.625Z,27.50
2022-11-24T12:00:41.656Z,27.50
2022-11-24T12:03:51.018Z,27.60
2022-11-24T12:07:00.384Z,27.60
2022-11-24T12:09:59.185Z,27.60
2022-11-24T12:13:11.335Z,27.50
2022-11-24T12:16:06.282Z,27.50
2022-11-24T12:19:15.697Z,27.60
2022-11-24T12:22:11.571Z,27.50
2022-11-24T12:25:21.266Z,27.40
2022-11-24T12:28:30.470Z,27.30
2022-11-24T12:31:10.019Z,27.30
2022-11-24T12:34:19.909Z,27.20
2022-11-24T12:37:23.299Z,27.20
2022-11-24T12:40:17.365Z,27.20
2022-11-24T12:43:26.966Z,27.10
2022-11-24T12:46:36.528Z,27.10
2022-11-24T12:49:33.586Z,27.00
2022-11-24T12:52:20.906Z,27.10
2022-11-24T12:54:51.847Z,27.10
2022-11-24T12:57:55.436Z,27.00
2022-11-24T13:00:36.555Z,27.00
2022-11-24T13:03:46.150Z,27.00
2022-11-24T13:06:47.472Z,27.00
2022-11-24T13:09:20.216Z,27.00
2022-11-24T13:12:17.346Z,26.90
2022-11-24T13:14:50.573Z,26.90
2022-11-24T13:17:58.420Z,27.00
2022-11-24T13:20:37.088Z,26.90
2022-11-24T13:23:21.986Z,26.90
2022-11-24T13:26:30.042Z,26.90
2022-11-24T13:29:23.793Z,26.80
2022-11-24T13:32:19.169Z,26.80
2022-11-24T13:35:17.797Z,26.80
2022-11-24T13:37:53.080Z,26.90
2022-11-24T13:40:54.303Z,26.80
2022-11-24T13:43:32.722Z,26.90
2022-11-24T13:46:05.447Z,26.90
2022-11-24T13:49:04.614Z,26.80
2022-11-24T13:51:35.576Z,26.80
2022-11-24T13:54:11.919Z,26.70
2022-11-24T13:56:42.758Z,26.60
2022-11-24T13:59:34.584Z,26.70
2022-11-24T14:02:22.708Z,26.70
2022-11-24T14:04:53.528Z,26.70
2022-11-24T14:07:24.510Z,26.70
2022-11-24T14:09:55.884Z,26.70
2022-11-24T14:12:35.792Z,26.80
2022-11-24T14:15:31.020Z,26.80
2022-11-24T14:18:01.469Z,26.70
2022-11-24T14:20:31.645Z,26.70
2022-11-24T14:23:03.804Z,26.70
2022-11-24T14:25:36.747Z,26.60
2022-11-24T14:28:29.530Z,26.70
2022-11-24T14:31:27.298Z,26.60
2022-11-24T14:34:19.687Z,26.70
2022-11-24T14:36:52.033Z,26.70
2022-11-24T14:39:24.944Z,26.60
2022-11-24T14:42:16.823Z,26.60
2022-11-24T14:44:57.946Z,26.60
2022-11-24T14:47:39.493Z,26.50
2022-11-24T14:50:18.306Z,26.50
2022-11-24T14:52:55.192Z,26.50
2022-11-24T14:55:29.136Z,26.60
2022-11-24T14:58:00.582Z,26.50
2022-11-24T15:00:34.218Z,26.50
2022-11-24T15:03:24.312Z,26.50
2022-11-24T15:06:00.144Z,26.50
2022-11-24T15:08:39.155Z,26.50
2022-11-24T15:11:10.738Z,26.50
2022-11-24T15:13:42.395Z,26.40
2022-11-24T15:16:23.687Z,26.30
2022-11-24T15:19:03.146Z,26.30
2022-11-24T15:21:38.864Z,26.30
2022-11-24T15:24:24.383Z,26.30
2022-11-24T15:27:03.029Z,26.30
2022-11-24T15:29:33.192Z,26.30
2022-11-24T15:32:03.710Z,26.30
2022-11-24T15:34:34.432Z,26.20
2022-11-24T15:37:04.943Z,26.10
2022-11-24T15:39:35.410Z,26.20
2022-11-24T15:42:06.281Z,26.20
2022-11-24T15:44:37.038Z,26.20
2022-11-24T15:47:07.706Z,26.10
2022-11-24T15:49:38.398Z,26.00
2022-11-24T15:52:09.286Z,26.10
2022-11-24T15:54:40.524Z,26.00
2022-11-24T15:57:13.159Z,26.00
2022-11-24T15:59:44.142Z,26.00
2022-11-24T16:02:15.318Z,26.00
2022-11-24T16:04:45.732Z,26.10
2022-11-24T16:07:16.840Z,26.10
2022-11-24T16:09:47.486Z,26.10
2022-11-24T16:12:18.862Z,26.00
2022-11-24T16:14:49.805Z,26.00
2022-11-24T16:17:20.236Z,26.10
2022-11-24T16:20:00.119Z,26.00
2022-11-24T16:22:31.331Z,26.00
2022-11-24T16:25:02.291Z,26.00
2022-11-24T16:27:33.935Z,26.10
2022-11-24T16:30:04.911Z,26.10
2022-11-24T16:32:36.516Z,26.00
2022-11-24T16:35:08.543Z,26.00
2022-11-24T16:37:38.471Z,25.90
2022-11-24T16:40:09.334Z,26.00
2022-11-24T16:42:40.308Z,25.90
2022-11-24T16:45:14.621Z,25.90
2022-11-24T16:47:45.503Z,25.90
2022-11-24T16:50:16.882Z,25.90
2022-11-24T16:52:47.531Z,25.80
2022-11-24T16:55:18.502Z,25.80
2022-11-24T16:57:50.068Z,25.80
2022-11-24T17:00:21.268Z,25.90
2022-11-24T17:02:51.817Z,26.00
2022-11-24T17:05:22.643Z,25.90
2022-11-24T17:07:52.802Z,25.80
2022-11-24T17:10:22.934Z,25.80
2022-11-24T17:12:53.799Z,25.90
2022-11-24T17:15:33.461Z,25.90
2022-11-24T17:21:06.018Z,26.00
2022-11-24T17:23:38.661Z,26.00
2022-11-24T17:26:12.881Z,25.90
2022-11-24T17:28:44.256Z,25.90
2022-11-24T17:31:37.108Z,25.90
2022-11-24T17:34:09.050Z,26.00
2022-11-24T17:36:41.297Z,25.90
2022-11-24T17:39:13.995Z,25.90
2022-11-24T17:41:44.757Z,25.90
2022-11-24T17:44:15.192Z,25.90
2022-11-24T17:46:45.448Z,25.80
2022-11-24T17:49:16.265Z,25.90
2022-11-24T17:51:51.946Z,26.00
2022-11-24T17:54:45.268Z,25.90
2022-11-24T17:57:13.037Z,25.90
2022-11-24T17:59:43.702Z,25.90
2022-11-24T18:02:14.206Z,25.90
2022-11-24T18:04:44.637Z,25.80
2022-11-24T18:07:14.739Z,25.80
2022-11-24T18:09:45.580Z,25.80
2022-11-24T18:12:17.093Z,25.80
2022-11-24T18:14:47.715Z,25.80
2022-11-24T18:17:18.460Z,25.80
2022-11-24T18:19:49.241Z,25.80
2022-11-24T18:22:36.584Z,25.80
2022-11-24T18:25:11.157Z,25.70
2022-11-24T18:27:43.056Z,25.70
2022-11-24T18:30:14.103Z,25.70
2022-11-24T18:32:44.560Z,25.80
2022-11-24T18:35:15.062Z,25.80
2022-11-24T18:37:46.163Z,25.80
2022-11-24T18:40:16.525Z,25.70
2022-11-24T18:42:47.478Z,25.80
2022-11-24T18:45:17.673Z,25.70
2022-11-24T18:47:48.508Z,25.80
2022-11-24T18:50:19.196Z,25.80
2022-11-24T18:52:49.898Z,25.70
2022-11-24T18:55:20.019Z,25.80
2022-11-24T18:57:50.877Z,25.80
2022-11-24T19:00:22.437Z,25.80
2022-11-24T19:02:54.151Z,25.80
2022-11-24T19:05:25.294Z,25.80
2022-11-24T19:07:55.652Z,25.90
2022-11-24T19:10:25.736Z,25.90
2022-11-24T19:12:57.303Z,25.80
2022-11-24T19:15:27.671Z,25.80
2022-11-24T19:17:58.139Z,25.70
2022-11-24T19:20:28.323Z,25.70
2022-11-24T19:22:59.005Z,25.70
2022-11-24T19:25:29.472Z,25.80
2022-11-24T19:28:00.017Z,25.70
2022-11-24T19:30:30.862Z,25.70
2022-11-24T19:33:01.520Z,25.80
2022-11-24T19:35:31.949Z,25.80
2022-11-24T19:38:02.088Z,25.80
2022-11-24T19:40:32.231Z,25.80
2022-11-24T19:43:02.423Z,25.80
2022-11-24T19:45:34.235Z,25.80
2022-11-24T19:48:05.093Z,25.80
2022-11-24T19:50:35.596Z,25.80
2022-11-24T19:53:06.205Z,25.70
2022-11-24T19:55:36.669Z,25.60
2022-11-24T19:58:07.283Z,25.60
2022-11-24T20:00:38.070Z,25.60
2022-11-24T20:03:09.383Z,25.60
2022-11-24T20:05:39.902Z,25.60
2022-11-24T20:08:10.791Z,25.60
2022-11-24T20:10:44.001Z,25.50
2022-11-24T20:13:14.293Z,25.60
2022-11-24T20:15:45.998Z,25.60
2022-11-24T20:18:16.500Z,25.60
2022-11-24T20:20:47.630Z,25.60
2022-11-24T20:23:17.802Z,25.60
2022-11-24T20:25:48.389Z,25.60
2022-11-24T20:28:18.560Z,25.60
2022-11-24T20:30:48.989Z,25.60
2022-11-24T20:33:19.691Z,25.60
2022-11-24T20:35:49.790Z,25.60
2022-11-24T20:38:22.048Z,25.60
2022-11-24T20:40:52.559Z,25.50
2022-11-24T20:43:23.416Z,25.50
2022-11-24T20:45:53.686Z,25.50
2022-11-24T20:48:24.152Z,25.50
2022-11-24T20:50:54.699Z,25.50
2022-11-24T20:53:25.301Z,25.50
2022-11-24T20:56:05.602Z,25.50
2022-11-24T20:58:38.849Z,25.50
2022-11-24T21:01:19.614Z,25.50
2022-11-24T21:03:55.499Z,25.50
2022-11-24T21:06:27.003Z,25.50
2022-11-24T21:09:03.277Z,25.40
2022-11-24T21:11:35.265Z,25.50
2022-11-24T21:14:06.040Z,25.60
2022-11-24T21:16:39.262Z,25.50
2022-11-24T21:19:16.378Z,25.50
2022-11-24T21:21:49.430Z,25.50
2022-11-24T21:24:23.437Z,25.50
2022-11-24T21:26:54.602Z,25.50
2022-11-24T21:29:27.424Z,25.50
2022-11-24T21:31:57.626Z,25.40
2022-11-24T21:34:28.171Z,25.40
2022-11-24T21:36:59.016Z,25.40
2022-11-24T21:39:29.820Z,25.30
2022-11-24T21:42:00.881Z,25.30
2022-11-24T21:44:33.221Z,25.30
2022-11-24T21:47:05.684Z,25.40
2022-11-24T21:49:36.647Z,25.30
2022-11-24T21:52:08.264Z,25.30
2022-11-24T21:54:39.746Z,25.30
2022-11-24T21:57:10.632Z,25.30
2022-11-24T21:59:41.983Z,25.40
2022-11-24T22:02:15.105Z,25.30
2022-11-24T22:04:45.776Z,25.30
2022-11-24T22:07:16.746Z,25.40
2022-11-24T22:09:48.655Z,25.30
2022-11-24T22:12:19.788Z,25.30
2022-11-24T22:14:50.868Z,25.30
2022-11-24T22:17:21.542Z,25.30
2022-11-24T22:19:53.241Z,25.40
2022-11-24T22:22:23.869Z,25.40
2022-11-24T22:24:54.586Z,25.30
2022-11-24T22:27:25.853Z,25.30
2022-11-24T22:29:56.851Z,25.40
2022-11-24T22:32:27.758Z,25.30
2022-11-24T22:34:58.690Z,25.30
2022-11-24T22:37:29.100Z,25.30
2022-11-24T22:39:59.206Z,25.40
2022-11-24T22:42:29.456Z,25.40
2022-11-24T22:45:00.214Z,25.40
2022-11-24T22:47:30.725Z,25.50
2022-11-24T22:50:01.228Z,25.50
2022-11-24T22:52:31.054Z,25.40
2022-11-24T22:55:01.331Z,25.40
2022-11-24T22:57:32.185Z,25.50
2022-11-24T23:00:02.713Z,25.40
2022-11-24T23:02:33.668Z,25.40
2022-11-24T23:05:04.284Z,25.40
2022-11-24T23:07:34.773Z,25.40
2022-11-24T23:10:05.708Z,25.40
2022-11-24T23:12:36.185Z,25.50
2022-11-24T23:15:07.020Z,25.50
2022-11-24T23:17:37.361Z,25.50
2022-11-24T23:20:09.191Z,25.50
2022-11-24T23:22:39.999Z,25.40
2022-11-24T23:25:10.890Z,25.40
2022-11-24T23:27:41.538Z,25.50
2022-11-24T23:30:12.282Z,25.50
2022-11-24T23:32:43.415Z,25.40
2022-11-24T23:35:14.182Z,25.50
2022-11-24T23:38:06.472Z,25.50
2022-11-24T23:40:34.921Z,25.60
2022-11-24T23:43:05.089Z,25.60
2022-11-24T23:45:36.396Z,25.50
2022-11-24T23:48:10.082Z,25.50
2022-11-24T23:50:40.383Z,25.50
2022-11-24T23:53:10.940Z,25.50
2022-11-24T23:55:41.089Z,25.60
2022-11-24T23:58:11.694Z,25.60
